sensor_id;sensor_type;location;lat;lon;timestamp;pressure;altitude;pressure_sealevel;temperature;humidity
23733;BME280;12047;53.450;-2.286;2023-05-20T00:00:49;102680.06;;;17.59;100.00
23733;BME280;12047;53.450;-2.286;2023-05-20T00:05:50;102694.22;;;17.10;100.00
23733;BME280;12047;53.450;-2.286;2023-05-20T00:10:55;102688.38;;;16.75;100.00
23733;BME280;12047;53.450;-2.286;2023-05-20T00:16:00;102684.34;;;16.80;100.00
23733;BME280;12047;53.450;-2.286;2023-05-20T00:21:11;102680.69;;;17.12;100.00
23733;BME280;12047;53.450;-2.286;2023-05-20T00:26:20;102677.84;;;17.34;100.00
23733;BME280;12047;53.450;-2.286;2023-05-20T00:31:21;102676.38;;;17.51;100.00
23733;BME280;12047;53.450;-2.286;2023-05-20T00:36:41;102690.28;;;17.05;100.00
23733;BME280;12047;53.450;-2.286;2023-05-20T00:41:43;102691.13;;;17.05;100.00
23733;BME280;12047;53.450;-2.286;2023-05-20T00:46:46;102683.94;;;17.36;100.00
23733;BME280;12047;53.450;-2.286;2023-05-20T00:51:47;102676.59;;;17.68;100.00
23733;BME280;12047;53.450;-2.286;2023-05-20T00:56:51;102673.25;;;17.86;100.00
23733;BME280;12047;53.450;-2.286;2023-05-20T01:01:52;102682.84;;;17.79;100.00
23733;BME280;12047;53.450;-2.286;2023-05-20T01:13:08;102681.69;;;17.11;100.00
23733;BME280;12047;53.450;-2.286;2023-05-20T01:25:14;102681.03;;;16.56;100.00
23733;BME280;12047;53.450;-2.286;2023-05-20T01:30:50;102683.13;;;17.45;100.00
23733;BME280;12047;53.450;-2.286;2023-05-20T01:36:30;102675.88;;;17.26;100.00
23733;BME280;12047;53.450;-2.286;2023-05-20T01:41:43;102678.72;;;17.04;100.00
23733;BME280;12047;53.450;-2.286;2023-05-20T01:46:49;102683.25;;;16.51;100.00
23733;BME280;12047;53.450;-2.286;2023-05-20T01:51:51;102684.03;;;15.98;100.00
23733;BME280;12047;53.450;-2.286;2023-05-20T01:56:56;102681.38;;;15.98;100.00
23733;BME280;12047;53.450;-2.286;2023-05-20T02:02:00;102677.03;;;16.18;100.00
23733;BME280;12047;53.450;-2.286;2023-05-20T02:07:17;102686.78;;;17.14;100.00
23733;BME280;12047;53.450;-2.286;2023-05-20T02:12:18;102681.94;;;17.08;100.00
23733;BME280;12047;53.450;-2.286;2023-05-20T02:17:37;102687.13;;;16.58;100.00
23733;BME280;12047;53.450;-2.286;2023-05-20T02:23:14;102686.47;;;17.07;100.00
23733;BME280;12047;53.450;-2.286;2023-05-20T02:34:32;102680.69;;;17.12;100.00
23733;BME280;12047;53.450;-2.286;2023-05-20T02:46:17;102673.31;;;16.42;100.00
23733;BME280;12047;53.450;-2.286;2023-05-20T02:51:56;102677.91;;;16.92;100.00
23733;BME280;12047;53.450;-2.286;2023-05-20T02:57:00;102677.66;;;16.95;100.00
23733;BME280;12047;53.450;-2.286;2023-05-20T03:27:03;102686.28;;;16.25;100.00
23733;BME280;12047;53.450;-2.286;2023-05-20T03:32:25;102686.53;;;16.11;100.00
23733;BME280;12047;53.450;-2.286;2023-05-20T03:37:35;102688.78;;;15.84;100.00
23733;BME280;12047;53.450;-2.286;2023-05-20T03:42:38;102686.09;;;16.06;100.00
23733;BME280;12047;53.450;-2.286;2023-05-20T03:47:39;102684.09;;;16.19;100.00
23733;BME280;12047;53.450;-2.286;2023-05-20T03:52:43;102675.16;;;15.98;100.00
23733;BME280;12047;53.450;-2.286;2023-05-20T03:57:44;102676.16;;;15.86;100.00
23733;BME280;12047;53.450;-2.286;2023-05-20T04:02:44;102675.00;;;15.56;100.00
23733;BME280;12047;53.450;-2.286;2023-05-20T04:07:45;102666.09;;;15.78;100.00
23733;BME280;12047;53.450;-2.286;2023-05-20T04:12:48;102664.94;;;16.03;100.00
23733;BME280;12047;53.450;-2.286;2023-05-20T04:17:50;102659.34;;;16.06;100.00
23733;BME280;12047;53.450;-2.286;2023-05-20T04:22:51;102663.56;;;16.09;100.00
23733;BME280;12047;53.450;-2.286;2023-05-20T04:27:53;102658.69;;;15.37;100.00
23733;BME280;12047;53.450;-2.286;2023-05-20T04:32:57;102664.66;;;15.29;100.00
23733;BME280;12047;53.450;-2.286;2023-05-20T04:44:21;102660.03;;;16.19;100.00
23733;BME280;12047;53.450;-2.286;2023-05-20T04:49:47;102665.00;;;15.70;100.00
23733;BME280;12047;53.450;-2.286;2023-05-20T04:54:51;102671.34;;;16.12;100.00
23733;BME280;12047;53.450;-2.286;2023-05-20T04:59:57;102665.88;;;16.45;100.00
23733;BME280;12047;53.450;-2.286;2023-05-20T05:04:58;102666.31;;;16.29;100.00
23733;BME280;12047;53.450;-2.286;2023-05-20T05:09:59;102665.00;;;16.24;100.00
23733;BME280;12047;53.450;-2.286;2023-05-20T05:15:02;102670.13;;;15.73;100.00
23733;BME280;12047;53.450;-2.286;2023-05-20T05:20:04;102665.38;;;15.09;100.00
23733;BME280;12047;53.450;-2.286;2023-05-20T05:25:05;102671.94;;;15.50;100.00
23733;BME280;12047;53.450;-2.286;2023-05-20T05:30:35;102673.03;;;15.70;100.00
23733;BME280;12047;53.450;-2.286;2023-05-20T05:35:36;102672.75;;;15.95;100.00
23733;BME280;12047;53.450;-2.286;2023-05-20T05:40:37;102671.28;;;16.02;100.00
23733;BME280;12047;53.450;-2.286;2023-05-20T05:45:41;102678.25;;;15.71;100.00
23733;BME280;12047;53.450;-2.286;2023-05-20T05:50:45;102676.66;;;16.23;100.00
23733;BME280;12047;53.450;-2.286;2023-05-20T05:55:46;102677.13;;;15.96;100.00
23733;BME280;12047;53.450;-2.286;2023-05-20T06:00:50;102681.28;;;15.44;100.00
23733;BME280;12047;53.450;-2.286;2023-05-20T06:05:53;102684.72;;;16.12;100.00
23733;BME280;12047;53.450;-2.286;2023-05-20T06:10:54;102684.75;;;16.01;100.00
23733;BME280;12047;53.450;-2.286;2023-05-20T06:15:55;102680.34;;;15.56;100.00
23733;BME280;12047;53.450;-2.286;2023-05-20T06:20:57;102687.00;;;15.73;100.00
23733;BME280;12047;53.450;-2.286;2023-05-20T06:26:04;102682.41;;;16.18;100.00
23733;BME280;12047;53.450;-2.286;2023-05-20T06:31:06;102688.66;;;15.96;100.00
23733;BME280;12047;53.450;-2.286;2023-05-20T06:36:14;102688.78;;;15.84;100.00
23733;BME280;12047;53.450;-2.286;2023-05-20T06:41:14;102687.56;;;15.88;100.00
23733;BME280;12047;53.450;-2.286;2023-05-20T06:46:17;102680.56;;;16.51;100.00
23733;BME280;12047;53.450;-2.286;2023-05-20T06:51:17;102677.81;;;16.73;100.00
23733;BME280;12047;53.450;-2.286;2023-05-20T06:56:20;102679.00;;;16.80;100.00
23733;BME280;12047;53.450;-2.286;2023-05-20T07:01:21;102656.78;;;16.69;100.00
23733;BME280;12047;53.450;-2.286;2023-05-20T07:06:22;102658.72;;;16.66;100.00
23733;BME280;12047;53.450;-2.286;2023-05-20T07:11:29;102660.75;;;16.95;100.00
23733;BME280;12047;53.450;-2.286;2023-05-20T07:16:30;102650.88;;;17.56;100.00
23733;BME280;12047;53.450;-2.286;2023-05-20T07:21:34;102654.16;;;17.70;100.00
23733;BME280;12047;53.450;-2.286;2023-05-20T07:26:34;102654.44;;;17.66;100.00
23733;BME280;12047;53.450;-2.286;2023-05-20T07:31:35;102660.78;;;17.35;100.00
23733;BME280;12047;53.450;-2.286;2023-05-20T07:36:36;102657.09;;;17.57;100.00
23733;BME280;12047;53.450;-2.286;2023-05-20T07:41:37;102663.38;;;17.77;100.00
23733;BME280;12047;53.450;-2.286;2023-05-20T07:46:38;102662.16;;;18.39;97.63
23733;BME280;12047;53.450;-2.286;2023-05-20T07:51:41;102662.56;;;18.53;95.14
23733;BME280;12047;53.450;-2.286;2023-05-20T07:56:42;102662.84;;;18.69;94.58
23733;BME280;12047;53.450;-2.286;2023-05-20T08:01:43;102669.06;;;18.31;93.71
23733;BME280;12047;53.450;-2.286;2023-05-20T08:06:43;102664.44;;;19.09;94.41
23733;BME280;12047;53.450;-2.286;2023-05-20T08:11:44;102663.09;;;18.57;95.82
23733;BME280;12047;53.450;-2.286;2023-05-20T08:16:48;102655.03;;;18.95;91.38
23733;BME280;12047;53.450;-2.286;2023-05-20T08:21:57;102650.03;;;19.75;89.98
23733;BME280;12047;53.450;-2.286;2023-05-20T08:26:58;102646.78;;;19.07;88.06
23733;BME280;12047;53.450;-2.286;2023-05-20T08:31:59;102654.31;;;19.03;87.55
23733;BME280;12047;53.450;-2.286;2023-05-20T08:36:59;102645.13;;;20.05;85.72
23733;BME280;12047;53.450;-2.286;2023-05-20T08:42:00;102647.34;;;20.63;86.77
23733;BME280;12047;53.450;-2.286;2023-05-20T08:47:04;102644.69;;;20.46;86.57
23733;BME280;12047;53.450;-2.286;2023-05-20T08:52:05;102647.03;;;20.92;85.77
23733;BME280;12047;53.450;-2.286;2023-05-20T08:57:17;102641.66;;;20.31;85.91
23733;BME280;12047;53.450;-2.286;2023-05-20T09:02:19;102635.63;;;21.24;86.54
23733;BME280;12047;53.450;-2.286;2023-05-20T09:07:31;102638.69;;;20.16;88.78
23733;BME280;12047;53.450;-2.286;2023-05-20T09:12:32;102644.56;;;19.84;93.55
23733;BME280;12047;53.450;-2.286;2023-05-20T09:17:40;102623.69;;;21.35;86.97
23733;BME280;12047;53.450;-2.286;2023-05-20T09:22:50;102622.75;;;21.18;87.12
23733;BME280;12047;53.450;-2.286;2023-05-20T09:27:59;102615.13;;;22.14;79.99
23733;BME280;12047;53.450;-2.286;2023-05-20T09:33:03;102612.03;;;21.77;78.65
23733;BME280;12047;53.450;-2.286;2023-05-20T09:38:07;102615.09;;;21.05;75.71
23733;BME280;12047;53.450;-2.286;2023-05-20T09:43:10;102604.59;;;21.70;76.28
23733;BME280;12047;53.450;-2.286;2023-05-20T09:48:11;102601.59;;;21.98;74.01
23733;BME280;12047;53.450;-2.286;2023-05-20T09:53:13;102602.16;;;22.18;73.47
23733;BME280;12047;53.450;-2.286;2023-05-20T09:58:19;102595.41;;;22.22;70.96
23733;BME280;12047;53.450;-2.286;2023-05-20T10:03:23;102580.44;;;22.91;70.07
23733;BME280;12047;53.450;-2.286;2023-05-20T10:08:38;102591.84;;;22.46;70.42
23733;BME280;12047;53.450;-2.286;2023-05-20T10:19:33;102573.78;;;23.10;68.09
23733;BME280;12047;53.450;-2.286;2023-05-20T10:24:39;102566.84;;;23.46;68.51
23733;BME280;12047;53.450;-2.286;2023-05-20T10:35:03;102563.78;;;20.55;68.34
23733;BME280;12047;53.450;-2.286;2023-05-20T10:40:08;102562.38;;;20.08;69.81
23733;BME280;12047;53.450;-2.286;2023-05-20T10:45:29;102548.97;;;21.19;67.14
23733;BME280;12047;53.450;-2.286;2023-05-20T10:50:36;102539.66;;;21.14;65.80
23733;BME280;12047;53.450;-2.286;2023-05-20T10:55:39;102544.72;;;21.67;65.27
23733;BME280;12047;53.450;-2.286;2023-05-20T11:00:43;102525.81;;;21.00;65.25
23733;BME280;12047;53.450;-2.286;2023-05-20T11:05:44;102524.41;;;20.88;64.01
23733;BME280;12047;53.450;-2.286;2023-05-20T11:10:47;102513.81;;;21.53;62.32
23733;BME280;12047;53.450;-2.286;2023-05-20T11:15:48;102517.44;;;21.20;62.59
23733;BME280;12047;53.450;-2.286;2023-05-20T11:20:49;102501.72;;;21.65;61.42
23733;BME280;12047;53.450;-2.286;2023-05-20T11:25:51;102510.16;;;22.19;60.92
23733;BME280;12047;53.450;-2.286;2023-05-20T11:30:52;102499.53;;;21.53;63.82
23733;BME280;12047;53.450;-2.286;2023-05-20T11:35:53;102504.34;;;21.33;63.50
23733;BME280;12047;53.450;-2.286;2023-05-20T11:40:54;102481.22;;;23.99;63.36
23733;BME280;12047;53.450;-2.286;2023-05-20T11:45:56;102480.53;;;24.34;57.75
23733;BME280;12047;53.450;-2.286;2023-05-20T11:51:00;102484.81;;;22.28;59.86
23733;BME280;12047;53.450;-2.286;2023-05-20T11:56:00;102477.25;;;22.79;61.18
23733;BME280;12047;53.450;-2.286;2023-05-20T12:01:06;102473.06;;;21.48;61.33
23733;BME280;12047;53.450;-2.286;2023-05-20T12:06:13;102472.69;;;21.27;60.93
23733;BME280;12047;53.450;-2.286;2023-05-20T12:11:17;102460.00;;;23.19;58.06
23733;BME280;12047;53.450;-2.286;2023-05-20T12:16:17;102451.66;;;23.74;54.43
23733;BME280;12047;53.450;-2.286;2023-05-20T12:21:18;102451.19;;;24.23;56.02
23733;BME280;12047;53.450;-2.286;2023-05-20T12:26:19;102442.44;;;23.38;55.70
23733;BME280;12047;53.450;-2.286;2023-05-20T12:31:25;102443.00;;;23.94;54.71
23733;BME280;12047;53.450;-2.286;2023-05-20T12:36:26;102428.88;;;23.23;53.86
23733;BME280;12047;53.450;-2.286;2023-05-20T12:41:26;102429.41;;;22.88;51.13
23733;BME280;12047;53.450;-2.286;2023-05-20T12:46:27;102424.22;;;23.32;49.11
23733;BME280;12047;53.450;-2.286;2023-05-20T12:51:28;102421.69;;;23.30;50.98
23733;BME280;12047;53.450;-2.286;2023-05-20T12:56:28;102420.31;;;23.57;50.78
23733;BME280;12047;53.450;-2.286;2023-05-20T13:01:29;102412.03;;;24.26;52.29
23733;BME280;12047;53.450;-2.286;2023-05-20T13:06:30;102425.88;;;23.64;52.90
23733;BME280;12047;53.450;-2.286;2023-05-20T13:11:30;102415.06;;;23.79;52.66
23733;BME280;12047;53.450;-2.286;2023-05-20T13:16:31;102413.53;;;23.16;52.78
23733;BME280;12047;53.450;-2.286;2023-05-20T13:21:32;102400.66;;;23.63;51.13
23733;BME280;12047;53.450;-2.286;2023-05-20T13:26:32;102409.09;;;23.68;50.68
23733;BME280;12047;53.450;-2.286;2023-05-20T13:31:33;102391.34;;;23.81;50.20
23733;BME280;12047;53.450;-2.286;2023-05-20T13:36:33;102391.63;;;23.71;51.83
23733;BME280;12047;53.450;-2.286;2023-05-20T13:41:34;102381.00;;;23.84;51.18
23733;BME280;12047;53.450;-2.286;2023-05-20T13:46:34;102377.84;;;23.20;48.22
23733;BME280;12047;53.450;-2.286;2023-05-20T13:51:35;102378.75;;;21.14;53.22
23733;BME280;12047;53.450;-2.286;2023-05-20T13:56:36;102373.38;;;23.50;52.04
23733;BME280;12047;53.450;-2.286;2023-05-20T14:01:37;102365.81;;;23.23;51.47
23733;BME280;12047;53.450;-2.286;2023-05-20T14:06:38;102362.16;;;23.91;54.18
23733;BME280;12047;53.450;-2.286;2023-05-20T14:11:39;102347.69;;;24.42;52.38
23733;BME280;12047;53.450;-2.286;2023-05-20T14:16:39;102346.94;;;24.19;54.25
23733;BME280;12047;53.450;-2.286;2023-05-20T14:21:43;102336.25;;;25.26;53.34
23733;BME280;12047;53.450;-2.286;2023-05-20T14:26:43;102352.06;;;24.14;55.55
23733;BME280;12047;53.450;-2.286;2023-05-20T14:31:44;102337.13;;;24.33;56.31
23733;BME280;12047;53.450;-2.286;2023-05-20T14:36:44;102337.22;;;24.39;57.52
23733;BME280;12047;53.450;-2.286;2023-05-20T14:41:45;102336.47;;;23.34;58.11
23733;BME280;12047;53.450;-2.286;2023-05-20T14:46:46;102319.28;;;24.74;56.87
23733;BME280;12047;53.450;-2.286;2023-05-20T14:51:46;102320.56;;;24.79;56.12
23733;BME280;12047;53.450;-2.286;2023-05-20T14:56:47;102309.66;;;25.15;59.04
23733;BME280;12047;53.450;-2.286;2023-05-20T15:01:47;102306.88;;;23.33;60.86
23733;BME280;12047;53.450;-2.286;2023-05-20T15:06:48;102294.66;;;23.89;61.33
23733;BME280;12047;53.450;-2.286;2023-05-20T15:11:49;102301.91;;;24.18;62.89
23733;BME280;12047;53.450;-2.286;2023-05-20T15:16:50;102298.28;;;24.26;60.19
23733;BME280;12047;53.450;-2.286;2023-05-20T15:21:50;102295.69;;;24.54;60.93
23733;BME280;12047;53.450;-2.286;2023-05-20T15:26:52;102299.97;;;23.68;60.60
23733;BME280;12047;53.450;-2.286;2023-05-20T15:31:53;102284.59;;;24.49;60.28
23733;BME280;12047;53.450;-2.286;2023-05-20T15:36:53;102277.81;;;24.38;58.11
23733;BME280;12047;53.450;-2.286;2023-05-20T15:41:54;102275.59;;;24.12;58.91
23733;BME280;12047;53.450;-2.286;2023-05-20T15:46:55;102276.25;;;24.50;59.53
23733;BME280;12047;53.450;-2.286;2023-05-20T15:51:55;102276.22;;;24.29;59.19
23733;BME280;12047;53.450;-2.286;2023-05-20T15:56:56;102276.44;;;23.83;61.99
23733;BME280;12047;53.450;-2.286;2023-05-20T16:01:57;102279.63;;;23.57;62.42
23733;BME280;12047;53.450;-2.286;2023-05-20T16:06:57;102271.38;;;23.36;62.27
23733;BME280;12047;53.450;-2.286;2023-05-20T16:11:58;102274.72;;;24.41;60.64
23733;BME280;12047;53.450;-2.286;2023-05-20T16:16:59;102269.47;;;23.59;59.62
23733;BME280;12047;53.450;-2.286;2023-05-20T16:21:59;102267.22;;;24.43;60.12
23733;BME280;12047;53.450;-2.286;2023-05-20T16:27:00;102261.56;;;25.30;57.07
23733;BME280;12047;53.450;-2.286;2023-05-20T16:32:00;102251.16;;;25.05;57.23
23733;BME280;12047;53.450;-2.286;2023-05-20T16:37:01;102254.25;;;23.73;58.59
23733;BME280;12047;53.450;-2.286;2023-05-20T16:42:01;102242.97;;;24.35;57.17
23733;BME280;12047;53.450;-2.286;2023-05-20T16:47:02;102243.69;;;24.65;56.01
23733;BME280;12047;53.450;-2.286;2023-05-20T16:52:03;102240.16;;;23.92;55.03
23733;BME280;12047;53.450;-2.286;2023-05-20T16:57:04;102243.25;;;24.25;55.52
23733;BME280;12047;53.450;-2.286;2023-05-20T17:02:05;102237.50;;;24.50;55.80
23733;BME280;12047;53.450;-2.286;2023-05-20T17:07:05;102231.84;;;23.94;57.74
23733;BME280;12047;53.450;-2.286;2023-05-20T17:12:08;102222.84;;;23.34;59.30
23733;BME280;12047;53.450;-2.286;2023-05-20T17:17:09;102221.22;;;23.63;59.07
23733;BME280;12047;53.450;-2.286;2023-05-20T17:22:10;102224.00;;;22.88;58.06
23733;BME280;12047;53.450;-2.286;2023-05-20T17:27:10;102219.78;;;23.23;57.28
23733;BME280;12047;53.450;-2.286;2023-05-20T17:32:11;102220.88;;;22.99;57.64
23733;BME280;12047;53.450;-2.286;2023-05-20T17:37:11;102228.63;;;22.79;58.22
23733;BME280;12047;53.450;-2.286;2023-05-20T17:42:12;102222.75;;;23.28;57.74
23733;BME280;12047;53.450;-2.286;2023-05-20T17:47:12;102225.34;;;23.06;57.11
23733;BME280;12047;53.450;-2.286;2023-05-20T17:52:13;102229.13;;;22.29;56.75
23733;BME280;12047;53.450;-2.286;2023-05-20T17:57:13;102235.22;;;22.77;55.79
23733;BME280;12047;53.450;-2.286;2023-05-20T18:02:14;102240.31;;;22.49;55.24
23733;BME280;12047;53.450;-2.286;2023-05-20T18:07:14;102244.13;;;22.77;55.40
23733;BME280;12047;53.450;-2.286;2023-05-20T18:12:16;102239.66;;;22.69;54.99
23733;BME280;12047;53.450;-2.286;2023-05-20T18:17:17;102236.47;;;22.43;56.17
23733;BME280;12047;53.450;-2.286;2023-05-20T18:22:17;102236.13;;;22.46;55.54
23733;BME280;12047;53.450;-2.286;2023-05-20T18:27:18;102240.13;;;21.88;53.64
23733;BME280;12047;53.450;-2.286;2023-05-20T18:32:18;102240.75;;;22.29;54.12
23733;BME280;12047;53.450;-2.286;2023-05-20T18:37:21;102234.00;;;22.33;54.85
23733;BME280;12047;53.450;-2.286;2023-05-20T18:42:22;102235.19;;;22.00;55.05
23733;BME280;12047;53.450;-2.286;2023-05-20T18:47:22;102243.63;;;21.97;55.55
23733;BME280;12047;53.450;-2.286;2023-05-20T18:52:23;102231.38;;;21.78;56.85
23733;BME280;12047;53.450;-2.286;2023-05-20T18:57:23;102240.81;;;21.82;58.29
23733;BME280;12047;53.450;-2.286;2023-05-20T19:02:24;102243.81;;;21.48;60.36
23733;BME280;12047;53.450;-2.286;2023-05-20T19:07:24;102247.13;;;21.66;61.67
23733;BME280;12047;53.450;-2.286;2023-05-20T19:12:25;102241.97;;;21.88;61.95
23733;BME280;12047;53.450;-2.286;2023-05-20T19:17:26;102254.38;;;21.58;64.18
23733;BME280;12047;53.450;-2.286;2023-05-20T19:22:26;102252.91;;;21.39;63.93
23733;BME280;12047;53.450;-2.286;2023-05-20T19:27:27;102245.25;;;21.67;62.99
23733;BME280;12047;53.450;-2.286;2023-05-20T19:32:27;102247.53;;;21.15;64.06
23733;BME280;12047;53.450;-2.286;2023-05-20T19:37:29;102244.66;;;21.16;64.24
23733;BME280;12047;53.450;-2.286;2023-05-20T19:42:31;102253.75;;;21.31;64.16
23733;BME280;12047;53.450;-2.286;2023-05-20T19:47:31;102258.16;;;20.84;64.68
23733;BME280;12047;53.450;-2.286;2023-05-20T19:52:32;102250.56;;;20.63;64.90
23733;BME280;12047;53.450;-2.286;2023-05-20T19:57:32;102252.22;;;20.56;65.92
23733;BME280;12047;53.450;-2.286;2023-05-20T20:02:33;102271.44;;;20.53;66.61
23733;BME280;12047;53.450;-2.286;2023-05-20T20:07:33;102263.38;;;20.69;66.96
23733;BME280;12047;53.450;-2.286;2023-05-20T20:12:33;102269.75;;;20.52;68.21
23733;BME280;12047;53.450;-2.286;2023-05-20T20:17:34;102271.66;;;20.33;69.60
23733;BME280;12047;53.450;-2.286;2023-05-20T20:22:34;102278.66;;;20.10;70.08
23733;BME280;12047;53.450;-2.286;2023-05-20T20:27:35;102279.91;;;19.90;70.56
23733;BME280;12047;53.450;-2.286;2023-05-20T20:32:35;102281.34;;;20.02;70.65
23733;BME280;12047;53.450;-2.286;2023-05-20T20:37:36;102274.72;;;19.62;70.93
23733;BME280;12047;53.450;-2.286;2023-05-20T20:42:41;102285.16;;;19.40;71.43
23733;BME280;12047;53.450;-2.286;2023-05-20T20:47:43;102285.25;;;19.82;71.04
23733;BME280;12047;53.450;-2.286;2023-05-20T20:52:44;102288.53;;;19.42;71.93
23733;BME280;12047;53.450;-2.286;2023-05-20T20:57:44;102287.66;;;19.15;71.73
23733;BME280;12047;53.450;-2.286;2023-05-20T21:02:46;102276.50;;;19.28;72.09
23733;BME280;12047;53.450;-2.286;2023-05-20T21:07:46;102288.88;;;19.21;73.13
23733;BME280;12047;53.450;-2.286;2023-05-20T21:12:49;102293.91;;;18.80;74.29
23733;BME280;12047;53.450;-2.286;2023-05-20T21:17:50;102295.75;;;18.97;75.13
23733;BME280;12047;53.450;-2.286;2023-05-20T21:22:50;102286.34;;;18.48;75.39
23733;BME280;12047;53.450;-2.286;2023-05-20T21:27:51;102292.41;;;18.50;76.41
23733;BME280;12047;53.450;-2.286;2023-05-20T21:32:51;102284.19;;;18.52;76.57
23733;BME280;12047;53.450;-2.286;2023-05-20T21:37:52;102298.81;;;18.67;77.40
23733;BME280;12047;53.450;-2.286;2023-05-20T21:42:52;102297.72;;;18.60;78.07
23733;BME280;12047;53.450;-2.286;2023-05-20T21:47:53;102293.44;;;18.12;80.03
23733;BME280;12047;53.450;-2.286;2023-05-20T21:52:53;102284.47;;;18.04;82.51
23733;BME280;12047;53.450;-2.286;2023-05-20T21:57:53;102283.56;;;18.40;82.67
23733;BME280;12047;53.450;-2.286;2023-05-20T22:02:54;102282.63;;;17.77;86.01
23733;BME280;12047;53.450;-2.286;2023-05-20T22:07:54;102290.28;;;17.99;85.06
23733;BME280;12047;53.450;-2.286;2023-05-20T22:12:55;102295.78;;;17.97;86.05
23733;BME280;12047;53.450;-2.286;2023-05-20T22:17:57;102288.41;;;18.54;85.44
23733;BME280;12047;53.450;-2.286;2023-05-20T22:22:58;102294.53;;;17.45;88.78
23733;BME280;12047;53.450;-2.286;2023-05-20T22:27:58;102289.78;;;17.20;90.06
23733;BME280;12047;53.450;-2.286;2023-05-20T22:33:00;102297.06;;;17.47;90.45
23733;BME280;12047;53.450;-2.286;2023-05-20T22:38:01;102287.13;;;17.00;91.82
23733;BME280;12047;53.450;-2.286;2023-05-20T22:43:01;102295.34;;;17.55;91.42
23733;BME280;12047;53.450;-2.286;2023-05-20T22:48:02;102298.47;;;17.41;91.28
23733;BME280;12047;53.450;-2.286;2023-05-20T22:53:03;102296.69;;;17.32;93.36
23733;BME280;12047;53.450;-2.286;2023-05-20T22:58:03;102293.81;;;17.33;92.47
23733;BME280;12047;53.450;-2.286;2023-05-20T23:03:04;102285.69;;;17.16;93.42
23733;BME280;12047;53.450;-2.286;2023-05-20T23:08:05;102290.06;;;16.97;95.56
23733;BME280;12047;53.450;-2.286;2023-05-20T23:13:06;102282.09;;;17.54;94.33
23733;BME280;12047;53.450;-2.286;2023-05-20T23:18:06;102284.31;;;17.58;93.56
23733;BME280;12047;53.450;-2.286;2023-05-20T23:23:07;102295.06;;;18.05;92.72
23733;BME280;12047;53.450;-2.286;2023-05-20T23:28:09;102293.41;;;17.38;94.06
23733;BME280;12047;53.450;-2.286;2023-05-20T23:33:09;102299.56;;;17.58;93.04
23733;BME280;12047;53.450;-2.286;2023-05-20T23:38:10;102292.72;;;17.83;91.67
23733;BME280;12047;53.450;-2.286;2023-05-20T23:43:10;102280.03;;;18.12;92.02
23733;BME280;12047;53.450;-2.286;2023-05-20T23:48:11;102275.66;;;18.11;92.61
23733;BME280;12047;53.450;-2.286;2023-05-20T23:53:13;102274.28;;;18.07;93.86
23733;BME280;12047;53.450;-2.286;2023-05-20T23:58:13;102277.94;;;17.79;98.11
